Station: Alva Beach

  Atmospheric Gas Attenuation - ITU Rec 676-11   --------------- db/100km ---------------
Date Time Temp RH % AH g/m3 Dew Point Wind Direction Speed kph Gust kph Barometer mB Rainfall Since 9am 24GHz 47GHz 76GHz 122GHz 134GHz 241GHz
27 02:40 23.5 95 20.09 22.7 9 9 1005.3 19.4 43.5 42.6 83.6 221.2 245.5 852.5
27 02:30 23.6 95 20.2 22.8 9 17 1005.3 19.4 43.7 42.7 84.0 222.3 246.9 857.6
27 02:20 23.6 95 20.2 22.8 9 13 1005.3 19.4 43.7 42.7 84.0 222.3 246.9 857.6
27 02:10 23.5 95 20.09 22.7 13 17 1005.4 19.4 43.5 42.6 83.6 221.2 245.5 852.6
27 02:00 23.5 95 20.09 22.7 11 19 1005.5 19.4 43.5 42.6 83.6 221.2 245.5 852.7
27 01:50 23.5 96 20.3 22.8 13 17 1005.7 19.4 44.0 43.0 84.6 224.0 249.0 864.6
27 01:40 23.6 96 20.42 22.9 11 15 1005.9 19.4 44.2 43.2 85.1 225.4 250.6 870.3
27 01:30 23.6 96 20.42 22.9 11 19 1006.1 19.4 44.2 43.2 85.1 225.4 250.6 870.5
27 01:20 23.7 96 20.53 23 9 13 1006.2 19.4 44.4 43.4 85.6 226.6 252.1 875.6
27 01:10 23.7 96 20.53 23 11 17 1006.4 19.4 44.4 43.4 85.6 226.6 252.1 875.7
27 01:00 23.7 96 20.53 23 9 17 1006.6 19.4 44.4 43.4 85.6 226.6 252.2 875.8
27 00:50 23.8 96 20.65 23.1 13 19 1006.7 19.4 44.7 43.6 86.1 227.9 253.8 881.5
27 00:40 23.9 96 20.77 23.2 11 17 1006.7 19.4 44.9 43.8 86.6 229.2 255.4 887.1
27 00:30 24 96 20.89 23.3 11 22 1006.8 19.4 45.2 44.0 87.1 230.5 257.1 892.8
27 00:20 24.4 97 21.59 23.9 11 13 1006.8 19.4 46.6 45.2 90.1 238.7 267.2 927.9
27 00:10 24 97 21.1 23.5 13 20 1007 19.4 45.6 44.4 88.2 233.4 260.5 904.9
27 00:00 23.9 97 20.98 23.4 11 17 1007.1 19.4 45.4 44.2 87.7 232.1 258.9 899.3
26 23:50 23.8 97 20.86 23.3 13 15 1007.2 19.4 45.1 44.0 87.2 230.8 257.3 893.7
26 23:40 23.8 97 20.86 23.3 11 13 1007.3 19.4 45.1 44.0 87.2 230.9 257.4 893.8
26 23:30 23.8 96 20.65 23.1 9 19 1007.3 19.2 44.7 43.6 86.1 228.0 253.9 881.8
26 23:20 23.9 96 20.77 23.2 7 9 1007.5 18.8 44.9 43.8 86.6 229.4 255.6 887.6
26 23:10 23.9 96 20.77 23.2 9 11 1007.6 18 44.9 43.8 86.7 229.4 255.6 887.6
26 23:00 24 96 20.89 23.3 11 20 1007.6 17.6 45.1 44.0 87.1 230.7 257.2 893.3
26 22:50 24.1 96 21 23.4 9 13 1007.7 17.6 45.4 44.2 87.6 231.9 258.7 898.4
26 22:40 24.3 95 21.02 23.4 11 15 1007.7 17.6 45.4 44.1 87.4 231.5 258.3 897.1
26 22:30 24.5 95 21.26 23.6 13 28 1007.7 17.6 45.9 44.5 88.4 234.1 261.5 908.3
26 22:20 24.7 95 21.5 23.8 19 26 1007.7 17.4 46.4 44.9 89.4 236.7 264.7 919.6
26 22:10 25 96 22.1 24.3 19 28 1007.8 17.2 47.6 45.9 92.1 243.8 273.6 950.3
26 22:00 25 96 22.1 24.3 17 32 1007.8 17.2 47.6 45.9 92.1 243.8 273.6 950.3
26 21:50 25 96 22.1 24.3 22 33 1007.7 17.2 47.6 45.9 92.1 243.8 273.6 950.3
26 21:40 24.9 96 21.97 24.2 19 24 1007.7 17 47.4 45.7 91.5 242.4 271.8 944.1
26 21:30 25 96 22.1 24.3 20 33 1007.8 16.2 47.6 45.9 92.1 243.8 273.6 950.3
26 21:20 25 95 21.87 24.1 11 22 1007.8 14.2 47.1 45.4 90.9 240.7 269.8 937.1
26 21:10 25.2 96 22.35 24.5 22 28 1007.5 13.4 48.1 46.3 93.1 246.5 276.9 962.0
26 21:00 25.2 96 22.35 24.5 17 32 1007.5 13 48.1 46.3 93.1 246.5 276.9 962.0
26 20:50 25 96 22.1 24.3 20 24 1007.4 13 47.6 45.9 92.0 243.7 273.5 950.1
26 20:40 24.9 95 21.75 24 9 13 1007.4 11.8 46.9 45.2 90.4 239.3 268.1 931.2
26 20:30 25 94 21.64 24 11 19 1007.5 10.2 46.6 45.0 89.7 237.6 265.9 923.7
26 20:20 25.5 93 22.02 24.3 15 17 1007.1 6.4 47.4 45.4 91.0 241.0 270.3 938.9
26 20:10 25.9 91 22.03 24.3 13 17 1007 6.4 47.4 45.2 90.6 239.8 269.0 934.4
26 20:00 25.9 91 22.03 24.3 20 30 1006.9 6.2 47.4 45.2 90.5 239.8 268.9 934.4
26 19:50 25.9 90 21.79 24.1 19 30 1006.8 6.2 46.8 44.7 89.3 236.6 265.0 920.7
26 19:40 25.9 90 21.79 24.1 19 28 1006.7 6.2 46.8 44.7 89.3 236.6 265.0 920.6
26 19:30 25.8 89 21.43 23.8 19 32 1006.5 6.2 46.1 44.1 87.6 232.1 259.5 901.4
26 19:20 25.7 89 21.31 23.7 19 24 1006.4 6.2 45.9 43.9 87.2 230.8 257.9 895.9
26 19:10 25.8 90 21.67 24 17 24 1006.2 6.2 46.6 44.5 88.8 235.2 263.3 914.8
26 19:00 25.6 90 21.43 23.8 17 28 1006.2 6.2 46.1 44.2 87.9 232.6 260.1 903.7
26 18:50 25.6 90 21.43 23.8 17 24 1006.1 6.2 46.1 44.1 87.9 232.6 260.1 903.6
26 18:40 25.7 90 21.55 23.9 20 28 1006.1 6.2 46.4 44.3 88.3 233.9 261.7 909.2
26 18:30 25.6 91 21.66 24 20 32 1006 6.2 46.6 44.6 89.0 235.7 263.8 916.6
26 18:20 25.8 92 22.15 24.4 24 30 1006 6.2 47.6 45.5 91.2 241.6 271.1 941.9
26 18:10 25.8 92 22.15 24.4 19 28 1005.9 6.2 47.6 45.5 91.2 241.5 271.1 941.8
26 18:00 25.8 92 22.15 24.4 19 32 1005.9 6.2 47.6 45.5 91.2 241.5 271.1 941.8
26 17:50 25.7 92 22.03 24.3 19 24 1005.8 6.2 47.4 45.3 90.7 240.2 269.5 936.2
26 17:40 25.6 92 21.9 24.2 17 28 1005.8 6.2 47.1 45.1 90.2 238.8 267.7 930.0
26 17:30 25.6 92 21.9 24.2 19 32 1005.7 6 47.1 45.1 90.2 238.8 267.7 930.0
26 17:20 25.7 91 21.79 24.1 26 32 1005.6 6 46.9 44.8 89.5 237.0 265.5 922.4
26 17:10 25.9 92 22.27 24.5 20 28 1005.4 6 47.9 45.6 91.7 242.7 272.6 947.1
26 17:00 25.8 92 22.15 24.4 22 35 1005.2 6 47.6 45.4 91.2 241.4 271.0 941.4
26 16:50 25.7 92 22.03 24.3 20 28 1005.1 6 47.4 45.3 90.7 240.1 269.4 935.8
26 16:40 25.7 91 21.79 24.1 24 35 1004.9 6 46.9 44.8 89.4 236.9 265.4 922.0
26 16:30 25.7 90 21.55 23.9 26 39 1004.8 6 46.4 44.3 88.2 233.7 261.5 908.4
26 16:20 25.7 89 21.31 23.7 26 30 1004.7 5.8 45.9 43.8 87.0 230.5 257.6 894.9
26 16:10 25.8 90 21.67 24 26 33 1004.6 5.8 46.6 44.5 88.7 234.9 263.0 913.8
26 16:00 25.9 91 22.03 24.3 28 43 1004.6 5.8 47.4 45.1 90.4 239.4 268.5 932.9
26 15:50 26.1 92 22.52 24.7 22 35 1004.5 5.8 48.4 46.0 92.6 245.3 275.8 958.3
26 15:40 26 92 22.4 24.6 30 37 1004.4 5.8 48.2 45.8 92.1 244.0 274.2 952.6
26 15:30 26.1 92 22.52 24.7 28 41 1004.5 5.8 48.4 46.0 92.6 245.3 275.8 958.3
26 15:20 26 93 22.64 24.8 20 37 1004.5 5.8 48.7 46.3 93.3 247.2 278.2 966.5
26 15:10 26 93 22.64 24.8 26 35 1004.5 5.8 48.7 46.3 93.3 247.2 278.2 966.5
26 15:00 25.9 93 22.52 24.7 26 35 1004.5 5.8 48.4 46.1 92.9 245.9 276.6 960.9
26 14:50 26 93 22.64 24.8 19 32 1004.6 5.8 48.7 46.3 93.3 247.2 278.2 966.5
26 14:40 25.7 93 22.27 24.5 28 37 1004.7 5.6 47.9 45.7 91.9 243.3 273.2 949.2
26 14:30 25.6 92 21.9 24.2 26 43 1004.9 5.4 47.1 45.0 90.1 238.7 267.6 929.5
26 14:20 25.9 93 22.52 24.7 28 33 1004.9 5.2 48.4 46.1 92.9 246.0 276.7 961.1
26 14:10 26 93 22.64 24.8 20 32 1005.1 5 48.7 46.3 93.4 247.3 278.3 966.8
26 14:00 25.6 92 21.9 24.2 24 37 1005.2 4.8 47.1 45.0 90.1 238.7 267.6 929.7
26 13:50 25.8 94 22.63 24.8 24 37 1005.4 4.8 48.7 46.4 93.6 247.9 279.0 969.1
26 13:40 26.3 93 23.02 25.1 28 35 1005.5 4.2 49.4 46.9 95.0 251.5 283.5 985.1
26 13:30 26.1 92 22.52 24.7 24 33 1005.6 2.2 48.4 46.0 92.7 245.5 276.0 959.0
26 13:20 26.3 93 23.02 25.1 24 30 1005.6 2 49.4 46.9 95.0 251.6 283.6 985.1
26 13:10 26.3 93 23.02 25.1 20 26 1005.6 2 49.4 46.9 95.0 251.6 283.6 985.1
26 13:00 26.3 91 22.53 24.7 24 35 1005.7 1.4 48.4 46.0 92.5 245.0 275.5 957.0
26 12:50 26.7 90 22.78 24.9 20 26 1005.8 0.8 48.9 46.2 93.3 247.0 278.1 966.2
26 12:40 27 89 22.91 25 22 32 1005.8 0.6 49.1 46.3 93.5 247.8 279.1 969.7
26 12:30 26.9 87 22.27 24.5 22 33 1006 0.6 47.8 45.1 90.5 239.6 269.0 934.8
26 12:20 27.3 85 22.24 24.6 22 24 1006.1 0.4 47.6 44.8 89.8 237.9 267.1 928.2
26 12:10 27.2 86 22.38 24.6 22 30 1006.2 0.4 47.9 45.2 90.7 240.1 269.8 937.4
26 12:00 27.3 88 23.03 25.1 20 30 1006.3 0.4 49.3 46.4 93.8 248.5 280.0 972.9
26 11:50 26.4 86 21.41 23.9 17 19 1006.5 0.4 46.0 43.7 86.8 230.0 257.1 893.1
26 11:40 27.5 83 21.96 24.3 19 24 1006.6 0.2 47.0 44.2 88.3 233.7 262.0 910.5
26 11:30 27.3 85 22.24 24.6 17 24 1006.7 0.2 47.6 44.9 89.9 238.0 267.2 928.6
26 11:20 27.3 83 21.72 24.2 15 20 1007 0 46.5 43.9 87.3 231.3 258.9 899.8
26 11:10 27.3 82 21.46 24 19 22 1007.1 0 46.0 43.3 86.1 228.0 254.8 885.6
26 11:00 27.3 79 20.67 23.3 20 32 1007.1 0 44.3 41.8 82.3 217.9 242.5 842.5
26 10:50 27.4 78 20.52 23.2 22 28 1007.1 0 44.0 41.5 81.5 215.7 239.8 833.3
26 10:40 27.7 77 20.6 23.3 20 24 1007.1 0 44.1 41.5 81.5 215.8 240.1 834.3
26 10:30 27.7 79 21.13 23.7 19 28 1007.1 0 45.2 42.5 84.0 222.5 248.3 862.9
26 10:20 27.7 79 21.13 23.7 17 22 1007.2 0 45.2 42.5 84.1 222.5 248.3 862.9
26 10:10 27.9 81 21.91 24.3 20 28 1007.4 0 46.9 43.9 87.6 232.0 259.9 903.3

Last Refresh: 27-Feb-2021 03:15:01

Most of the information presented on this site is sourced from the Bureau of Meteorology.  Copyright in all material sourced from the Bureau of Meteorology resides with the Commonwealth of Australia.